Time;durP1;ratioP1;P1;durP2;ratioP2;P2;SDS_P1;SDS_P2;PMS_P1;PMS_P2;Temp;Humidity;BMP_temperature;BMP_pressure;BME280_temperature;BME280_humidity;BME280_pressure;Samples;Min_cycle;Max_cycle;Signal;HPM_P1;HPM_P2
2024/02/02 00:00:17;;;;;;;11.70;3.70;;;7.60;99.90;;;;;;5047471;28;20583;-75
2024/02/02 00:02:43;;;;;;;9.13;4.10;;;7.60;99.90;;;;;;5057255;28;20199;-75
2024/02/02 00:05:09;;;;;;;11.00;3.03;;;7.70;99.90;;;;;;5042080;28;20191;-76
2024/02/02 00:07:35;;;;;;;4.93;3.00;;;7.70;99.90;;;;;;5042382;28;20177;-76
2024/02/02 00:10:00;;;;;;;9.30;3.13;;;7.70;99.90;;;;;;5064444;28;20606;-76
2024/02/02 00:12:27;;;;;;;10.57;3.63;;;7.70;99.90;;;;;;5081630;28;20586;-76
2024/02/02 00:14:52;;;;;;;7.78;3.90;;;7.80;99.90;;;;;;5045992;28;20581;-75
2024/02/02 00:17:19;;;;;;;7.43;3.70;;;7.80;99.90;;;;;;5059705;28;20172;-76
2024/02/02 00:19:45;;;;;;;6.50;3.58;;;7.80;99.90;;;;;;5049462;28;20603;-77
2024/02/02 00:22:11;;;;;;;10.05;3.95;;;7.80;99.90;;;;;;5064519;28;20184;-77
2024/02/02 00:24:37;;;;;;;7.93;3.20;;;7.90;99.90;;;;;;5042846;28;20717;-77
2024/02/02 00:27:03;;;;;;;8.67;4.03;;;7.90;99.90;;;;;;5065525;28;20176;-77
2024/02/02 00:29:29;;;;;;;10.95;4.28;;;7.90;99.90;;;;;;5065903;28;20619;-76
2024/02/02 00:31:55;;;;;;;7.80;3.23;;;7.90;99.90;;;;;;5058579;28;20250;-77
2024/02/02 00:34:20;;;;;;;10.40;3.70;;;7.90;99.90;;;;;;5023104;28;20184;-77
2024/02/02 00:36:46;;;;;;;9.10;4.17;;;7.90;99.90;;;;;;5024265;28;20575;-77
2024/02/02 00:39:12;;;;;;;11.30;4.00;;;7.90;99.90;;;;;;5069557;28;20217;-77
2024/02/02 00:41:38;;;;;;;8.17;4.10;;;7.90;99.90;;;;;;5061875;28;20180;-77
2024/02/02 00:44:06;;;;;;;8.93;3.10;;;7.90;99.90;;;;;;5052281;28;20173;-76
2024/02/02 00:46:32;;;;;;;12.80;3.92;;;7.90;99.90;;;;;;5024772;28;20787;-77
2024/02/02 00:48:58;;;;;;;11.70;3.53;;;7.90;99.90;;;;;;5056586;22;20216;-73
2024/02/02 00:51:23;;;;;;;12.50;5.00;;;7.90;99.90;;;;;;5056771;28;20604;-74
2024/02/02 00:53:49;;;;;;;10.10;3.80;;;7.90;99.90;;;;;;5073021;28;20609;-74
2024/02/02 00:56:15;;;;;;;6.97;3.10;;;7.90;99.90;;;;;;5072792;28;20199;-74
2024/02/02 00:58:41;;;;;;;9.77;4.90;;;7.90;99.90;;;;;;5090161;28;20265;-74
2024/02/02 01:01:06;;;;;;;12.70;3.70;;;7.90;99.90;;;;;;5072815;28;20255;-73
2024/02/02 01:03:33;;;;;;;9.23;3.60;;;7.80;99.90;;;;;;5073412;28;20229;-73
2024/02/02 01:06:00;;;;;;;11.00;4.00;;;7.80;99.90;;;;;;5094244;28;20536;-73
2024/02/02 01:08:26;;;;;;;8.18;3.28;;;7.80;99.90;;;;;;5072772;28;20199;-74
2024/02/02 01:10:51;;;;;;;7.95;2.80;;;7.80;99.90;;;;;;5055780;28;20248;-74
2024/02/02 01:13:17;;;;;;;10.48;2.75;;;7.80;99.90;;;;;;5056146;28;20183;-73
2024/02/02 01:15:43;;;;;;;10.07;3.60;;;7.80;99.90;;;;;;5090838;28;20207;-74
2024/02/02 01:18:09;;;;;;;11.63;4.10;;;7.80;99.90;;;;;;5072723;28;20172;-73
2024/02/02 01:20:35;;;;;;;9.17;3.10;;;7.80;99.90;;;;;;5072483;28;20620;-73
2024/02/02 01:23:02;;;;;;;8.53;2.60;;;7.80;99.90;;;;;;5072377;28;20217;-74
2024/02/02 01:25:29;;;;;;;10.93;3.47;;;7.80;99.90;;;;;;5055751;28;20632;-74
2024/02/02 01:27:58;;;;;;;8.30;3.00;;;7.90;99.90;;;;;;5093908;28;20224;-74
2024/02/02 01:30:26;;;;;;;13.43;3.47;;;7.90;99.90;;;;;;5056134;28;20195;-73
2024/02/02 01:32:52;;;;;;;5.97;3.05;;;7.90;99.90;;;;;;5072662;28;20168;-73
2024/02/02 01:35:18;;;;;;;12.83;3.97;;;8.00;99.90;;;;;;5090707;28;20225;-74
2024/02/02 01:37:44;;;;;;;7.67;2.70;;;8.00;99.90;;;;;;5090832;28;20600;-73
2024/02/02 01:40:12;;;;;;;8.18;3.00;;;8.00;99.90;;;;;;5072508;28;20211;-74
2024/02/02 01:42:38;;;;;;;12.10;3.13;;;8.00;99.90;;;;;;5059096;28;20180;-73
2024/02/02 01:45:04;;;;;;;8.25;2.72;;;8.00;99.90;;;;;;5071916;28;20175;-73
2024/02/02 01:47:30;;;;;;;6.45;3.00;;;8.00;99.90;;;;;;5072135;28;20169;-73
2024/02/02 01:49:56;;;;;;;6.63;3.47;;;8.00;99.90;;;;;;5090363;28;20195;-73
2024/02/02 01:52:22;;;;;;;5.80;2.30;;;8.00;99.90;;;;;;5055708;28;20644;-74
2024/02/02 01:54:48;;;;;;;9.35;2.60;;;8.00;99.90;;;;;;5071550;28;20625;-74
2024/02/02 01:57:14;;;;;;;8.13;2.63;;;8.00;99.90;;;;;;5055144;28;20230;-73
2024/02/02 01:59:40;;;;;;;5.15;2.53;;;8.00;99.90;;;;;;5090411;28;20618;-73
2024/02/02 02:02:07;;;;;;;7.68;2.90;;;8.00;99.90;;;;;;5072218;28;20171;-74
2024/02/02 02:04:33;;;;;;;8.45;2.97;;;8.00;99.90;;;;;;5072052;28;20164;-74
2024/02/02 02:06:59;;;;;;;6.95;2.42;;;7.90;99.90;;;;;;5090180;28;20211;-74
2024/02/02 02:09:25;;;;;;;8.63;2.70;;;7.90;99.90;;;;;;5090052;28;20237;-74
2024/02/02 02:11:51;;;;;;;9.85;3.20;;;7.90;99.90;;;;;;5090606;28;20581;-74
2024/02/02 02:14:17;;;;;;;6.28;2.60;;;7.80;99.90;;;;;;5073040;28;20176;-74
2024/02/02 02:16:44;;;;;;;9.38;2.55;;;7.80;99.90;;;;;;5090003;28;20533;-73
2024/02/02 02:19:14;;;;;;;10.32;2.42;;;7.80;99.90;;;;;;5075079;28;20191;-73
2024/02/02 02:21:40;;;;;;;8.93;2.83;;;7.70;99.90;;;;;;5093891;28;20692;-74
2024/02/02 02:24:09;;;;;;;6.53;2.60;;;7.70;99.90;;;;;;5058850;28;20182;-73
2024/02/02 02:26:35;;;;;;;7.75;2.30;;;7.70;99.90;;;;;;5071072;28;20194;-74
2024/02/02 02:29:02;;;;;;;8.13;2.20;;;7.70;99.90;;;;;;5090847;28;20274;-74
2024/02/02 02:31:27;;;;;;;9.68;2.83;;;7.70;99.90;;;;;;5059358;28;20593;-73
2024/02/02 02:33:53;;;;;;;6.17;2.40;;;7.70;99.90;;;;;;5075615;28;20194;-74
2024/02/02 02:36:20;;;;;;;8.30;3.00;;;7.70;99.90;;;;;;5075726;28;20211;-74
2024/02/02 02:38:48;;;;;;;6.07;2.55;;;7.70;99.90;;;;;;5075601;28;20209;-74
2024/02/02 02:41:14;;;;;;;6.90;2.08;;;7.70;99.90;;;;;;5075764;28;20180;-73
2024/02/02 02:43:40;;;;;;;12.00;3.00;;;7.70;99.90;;;;;;5093769;28;20202;-74
2024/02/02 02:46:07;;;;;;;10.50;2.20;;;7.70;99.90;;;;;;5075615;28;20660;-73
2024/02/02 02:48:33;;;;;;;7.75;2.55;;;7.80;99.90;;;;;;5094045;28;20577;-73
2024/02/02 02:50:59;;;;;;;11.00;3.10;;;7.80;99.90;;;;;;5075506;28;20211;-74
2024/02/02 02:53:26;;;;;;;6.70;2.45;;;7.80;99.90;;;;;;5058720;28;20271;-73
2024/02/02 02:55:52;;;;;;;7.85;2.72;;;7.80;99.90;;;;;;5096949;28;20238;-73
2024/02/02 02:58:17;;;;;;;6.65;2.80;;;7.80;99.90;;;;;;5094021;28;20184;-74
2024/02/02 03:00:44;;;;;;;9.27;2.43;;;7.80;99.90;;;;;;5042502;28;20215;-73
2024/02/02 03:03:10;;;;;;;6.45;2.28;;;7.90;99.90;;;;;;5093313;28;20178;-73
2024/02/02 03:05:37;;;;;;;7.55;1.70;;;7.90;99.90;;;;;;5093598;28;20214;-74
2024/02/02 03:08:07;;;;;;;7.80;2.67;;;8.00;99.90;;;;;;5058656;28;20199;-74
2024/02/02 03:10:33;;;;;;;6.88;2.50;;;8.00;99.90;;;;;;5075824;28;20256;-74
2024/02/02 03:12:59;;;;;;;6.35;2.15;;;8.10;99.90;;;;;;5093646;28;20167;-74
2024/02/02 03:15:25;;;;;;;7.68;3.10;;;8.10;99.90;;;;;;5058581;28;20257;-74
2024/02/02 03:17:51;;;;;;;7.85;2.70;;;8.10;99.90;;;;;;5075597;28;20167;-74
2024/02/02 03:20:17;;;;;;;8.90;2.55;;;8.20;99.90;;;;;;5074761;28;20203;-73
2024/02/02 03:22:43;;;;;;;12.00;3.10;;;8.20;99.90;;;;;;5075288;28;20697;-73
2024/02/02 03:25:09;;;;;;;5.60;2.33;;;8.20;99.90;;;;;;5058442;28;20175;-73
2024/02/02 03:27:35;;;;;;;7.50;2.70;;;8.30;99.90;;;;;;5091779;28;20160;-73
2024/02/02 03:30:01;;;;;;;8.70;2.97;;;8.30;99.90;;;;;;5074932;28;20609;-74
2024/02/02 03:32:27;;;;;;;8.00;2.03;;;8.30;99.90;;;;;;5095144;28;20167;-74
2024/02/02 03:34:53;;;;;;;7.23;2.07;;;8.30;99.90;;;;;;5093315;28;20250;-74
2024/02/02 03:37:19;;;;;;;6.47;1.70;;;8.40;99.90;;;;;;5074554;28;20206;-74
2024/02/02 03:39:45;;;;;;;6.85;2.38;;;8.40;99.90;;;;;;5058108;28;20613;-74
2024/02/02 03:42:12;;;;;;;11.60;2.88;;;8.50;99.90;;;;;;5057987;28;20176;-74
2024/02/02 03:44:38;;;;;;;7.38;2.88;;;8.50;99.90;;;;;;5092486;28;20175;-74
2024/02/02 03:47:04;;;;;;;12.17;2.93;;;8.50;99.90;;;;;;5095493;28;20171;-74
2024/02/02 03:49:32;;;;;;;7.30;2.50;;;8.50;99.90;;;;;;5092096;28;21169;-74
2024/02/02 03:52:00;;;;;;;10.65;3.45;;;8.50;99.90;;;;;;5092994;28;20586;-74
2024/02/02 03:54:26;;;;;;;6.97;2.40;;;8.60;99.90;;;;;;5092213;28;20172;-73
2024/02/02 03:56:52;;;;;;;8.73;2.95;;;8.60;99.90;;;;;;5074221;28;20199;-74
2024/02/02 03:59:18;;;;;;;9.27;3.93;;;8.60;99.90;;;;;;5057353;28;20190;-73
2024/02/02 04:01:43;;;;;;;7.73;2.50;;;8.60;99.90;;;;;;5092572;28;20601;-74
2024/02/02 04:04:09;;;;;;;7.23;2.90;;;8.60;99.90;;;;;;5057155;28;20171;-73
2024/02/02 04:06:35;;;;;;;7.20;3.90;;;8.60;99.90;;;;;;5074317;28;20179;-73
2024/02/02 04:09:01;;;;;;;11.40;3.07;;;8.60;99.90;;;;;;5074470;28;20199;-74
2024/02/02 04:11:27;;;;;;;13.57;3.58;;;8.70;99.90;;;;;;5094429;28;20569;-74
2024/02/02 04:13:53;;;;;;;10.27;3.17;;;8.70;99.90;;;;;;5073698;28;20180;-74
2024/02/02 04:16:19;;;;;;;11.27;3.13;;;8.70;99.90;;;;;;5073833;28;20195;-74
2024/02/02 04:18:45;;;;;;;8.50;4.07;;;8.70;99.90;;;;;;5056884;28;20597;-73
2024/02/02 04:21:11;;;;;;;7.77;3.30;;;8.70;99.90;;;;;;5057407;28;20179;-73
2024/02/02 04:23:36;;;;;;;8.47;3.17;;;8.70;99.90;;;;;;5073788;28;20566;-73
2024/02/02 04:26:02;;;;;;;6.97;3.20;;;8.80;99.90;;;;;;5074092;28;20171;-74
2024/02/02 04:28:28;;;;;;;9.57;2.53;;;8.70;99.90;;;;;;5091800;28;20659;-73
2024/02/02 04:30:54;;;;;;;9.27;3.13;;;8.80;99.90;;;;;;5091931;28;20268;-73
2024/02/02 04:33:19;;;;;;;7.20;2.47;;;8.80;99.90;;;;;;5072955;28;20589;-73
2024/02/02 04:35:45;;;;;;;8.83;3.03;;;8.80;99.90;;;;;;5091956;28;20252;-73
2024/02/02 04:38:11;;;;;;;9.37;3.13;;;8.80;99.90;;;;;;5073262;28;20189;-73
2024/02/02 04:40:36;;;;;;;6.93;3.27;;;8.70;99.90;;;;;;5073681;28;20203;-74
2024/02/02 04:43:02;;;;;;;13.77;3.90;;;8.70;99.90;;;;;;5073186;28;20176;-74
2024/02/02 04:45:28;;;;;;;5.80;3.10;;;8.70;99.90;;;;;;5073487;28;20233;-74
2024/02/02 04:47:54;;;;;;;14.30;5.13;;;8.70;99.90;;;;;;5076066;28;20616;-74
2024/02/02 04:50:20;;;;;;;7.17;2.87;;;8.70;99.90;;;;;;5091059;28;20853;-74
2024/02/02 04:52:45;;;;;;;9.87;4.30;;;8.70;99.90;;;;;;5091882;28;20618;-74
2024/02/02 04:55:12;;;;;;;7.93;2.57;;;8.70;99.90;;;;;;5072810;28;20612;-74
2024/02/02 04:57:37;;;;;;;15.57;3.30;;;8.60;99.90;;;;;;5091447;28;20507;-74
2024/02/02 05:00:04;;;;;;;8.37;2.80;;;8.60;99.90;;;;;;5091285;28;20195;-74
2024/02/02 05:02:31;;;;;;;10.82;3.60;;;8.60;99.90;;;;;;5073071;28;20578;-74
2024/02/02 05:04:57;;;;;;;9.65;3.75;;;8.60;99.90;;;;;;5090897;28;20168;-74
2024/02/02 05:07:23;;;;;;;9.30;3.80;;;8.60;99.90;;;;;;5073109;28;20253;-74
2024/02/02 05:09:49;;;;;;;10.47;4.23;;;8.60;99.90;;;;;;5073005;28;20621;-74
2024/02/02 05:12:15;;;;;;;6.60;2.97;;;8.50;99.90;;;;;;5073185;28;20655;-74
2024/02/02 05:14:42;;;;;;;8.18;3.28;;;8.50;99.90;;;;;;5072689;28;20228;-74
2024/02/02 05:17:08;;;;;;;10.93;4.72;;;8.50;99.90;;;;;;5090737;28;20207;-74
2024/02/02 05:19:34;;;;;;;15.30;3.47;;;8.50;99.90;;;;;;5090776;28;20187;-74
2024/02/02 05:22:00;;;;;;;9.17;3.33;;;8.50;99.90;;;;;;5073153;28;20221;-74
2024/02/02 05:24:26;;;;;;;10.47;3.30;;;8.50;99.90;;;;;;5093437;28;20597;-73
2024/02/02 05:26:52;;;;;;;15.97;3.80;;;8.50;99.90;;;;;;5072838;28;20586;-74
2024/02/02 05:29:18;;;;;;;7.78;3.20;;;8.60;99.90;;;;;;5072562;28;20278;-74
2024/02/02 05:31:43;;;;;;;9.77;4.50;;;8.60;99.90;;;;;;5055892;28;20263;-74
2024/02/02 05:34:09;;;;;;;13.20;4.20;;;8.60;99.90;;;;;;5072359;28;20210;-74
2024/02/02 05:36:35;;;;;;;9.60;3.63;;;8.60;99.90;;;;;;5090581;28;20669;-74
2024/02/02 05:39:00;;;;;;;8.00;3.40;;;8.60;99.90;;;;;;5072545;28;20195;-74
2024/02/02 05:41:26;;;;;;;10.70;3.53;;;8.60;99.90;;;;;;5072542;28;20182;-74
2024/02/02 05:43:52;;;;;;;7.10;3.83;;;8.70;99.90;;;;;;5072372;28;20172;-74
2024/02/02 05:46:18;;;;;;;19.73;4.67;;;8.70;99.90;;;;;;5072196;28;20179;-74
2024/02/02 05:48:43;;;;;;;7.60;3.10;;;8.70;99.90;;;;;;5072510;28;20263;-73
2024/02/02 05:51:09;;;;;;;13.87;4.17;;;8.70;99.90;;;;;;5090532;28;20608;-74
2024/02/02 05:53:35;;;;;;;14.30;4.10;;;8.70;99.90;;;;;;5105864;28;20218;-73
2024/02/02 05:56:01;;;;;;;10.80;3.77;;;8.70;99.90;;;;;;5071922;28;20660;-73
2024/02/02 05:58:27;;;;;;;8.95;3.70;;;8.70;99.90;;;;;;5072822;28;20191;-73
2024/02/02 06:00:53;;;;;;;10.63;3.13;;;8.70;99.90;;;;;;5073649;28;20198;-73
2024/02/02 06:03:20;;;;;;;12.63;3.70;;;8.70;99.90;;;;;;5073660;28;20622;-74
2024/02/02 06:05:46;;;;;;;9.43;3.28;;;8.70;99.90;;;;;;5072902;28;20590;-73
2024/02/02 06:08:13;;;;;;;8.37;3.83;;;8.70;99.90;;;;;;5073731;28;20228;-73
2024/02/02 06:10:40;;;;;;;11.25;3.67;;;8.70;99.90;;;;;;5072520;28;20628;-73
2024/02/02 06:13:07;;;;;;;10.20;4.07;;;8.70;99.90;;;;;;5090256;28;20186;-73
2024/02/02 06:15:33;;;;;;;9.95;4.68;;;8.70;99.90;;;;;;5090102;28;20206;-73
2024/02/02 06:17:59;;;;;;;8.20;4.03;;;8.70;99.90;;;;;;5072247;28;20250;-74
2024/02/02 06:20:24;;;;;;;9.77;3.77;;;8.60;99.90;;;;;;5071492;28;21234;-74
2024/02/02 06:22:50;;;;;;;8.67;3.60;;;8.60;99.90;;;;;;5090633;28;20181;-73
2024/02/02 06:25:16;;;;;;;10.87;3.87;;;8.60;99.90;;;;;;5071767;28;20186;-73
2024/02/02 06:27:42;;;;;;;11.43;3.90;;;8.60;99.90;;;;;;5072199;28;20172;-73
2024/02/02 06:30:08;;;;;;;9.20;3.57;;;8.60;99.90;;;;;;5089296;28;20206;-72
2024/02/02 06:32:35;;;;;;;8.68;3.60;;;8.60;99.90;;;;;;5088926;28;20240;-73
2024/02/02 06:35:02;;;;;;;11.35;2.83;;;8.60;99.90;;;;;;5089950;28;20623;-73
2024/02/02 06:37:28;;;;;;;6.18;3.35;;;8.60;99.90;;;;;;5072500;28;20191;-73
2024/02/02 06:39:58;;;;;;;10.68;2.92;;;8.50;99.90;;;;;;5074578;28;20196;-73
2024/02/02 06:42:27;;;;;;;9.85;3.20;;;8.50;99.90;;;;;;5071956;28;20186;-73
2024/02/02 06:44:54;;;;;;;12.18;3.80;;;8.50;99.90;;;;;;5054722;28;20517;-73
2024/02/02 06:47:21;;;;;;;13.65;3.67;;;8.50;99.90;;;;;;5089995;28;20172;-73
2024/02/02 06:49:46;;;;;;;13.35;3.80;;;8.40;99.90;;;;;;5055193;28;20211;-73
2024/02/02 06:52:16;;;;;;;9.13;3.57;;;8.40;99.90;;;;;;5089949;28;20649;-73
2024/02/02 06:54:43;;;;;;;16.25;3.83;;;8.40;99.90;;;;;;5054754;28;20219;-72
2024/02/02 06:57:09;;;;;;;17.08;6.15;;;8.40;99.90;;;;;;5071981;28;20249;-74
2024/02/02 06:59:41;;;;;;;9.23;3.28;;;8.30;99.90;;;;;;5085558;22;20215;-76
2024/02/02 07:02:19;;;;;;;13.02;3.90;;;8.40;99.90;;;;;;5047590;28;20192;-76
2024/02/02 07:04:46;;;;;;;8.32;3.40;;;8.40;99.90;;;;;;5089555;28;20163;-76
2024/02/02 07:07:12;;;;;;;11.90;4.95;;;8.30;99.90;;;;;;5059330;28;20178;-76
2024/02/02 07:09:39;;;;;;;10.17;3.63;;;8.30;99.90;;;;;;5096688;28;20211;-76
2024/02/02 07:12:05;;;;;;;12.70;3.78;;;8.30;99.90;;;;;;5098100;28;20576;-76
2024/02/02 07:14:43;;;;;;;9.55;3.60;;;8.30;99.90;;;;;;5081195;28;20207;-76
2024/02/02 07:17:37;;;;;;;9.45;4.00;;;8.40;99.90;;;;;;5114913;28;20211;-76
2024/02/02 07:20:10;;;;;;;9.93;3.50;;;8.40;99.90;;;;;;5113989;28;20616;-76
2024/02/02 07:22:41;;;;;;;10.98;3.60;;;8.40;99.90;;;;;;5111266;28;20176;-76
2024/02/02 07:25:10;;;;;;;9.57;3.83;;;8.40;99.90;;;;;;5053434;28;20176;-76
2024/02/02 07:27:51;;;;;;;7.40;3.25;;;8.40;99.90;;;;;;5056358;28;20192;-76
2024/02/02 07:30:32;;;;;;;9.95;3.83;;;8.40;99.90;;;;;;5055438;28;20207;-76
2024/02/02 07:32:59;;;;;;;8.23;3.83;;;8.50;99.90;;;;;;5058407;28;20177;-77
2024/02/02 07:35:32;;;;;;;10.60;4.20;;;8.50;99.90;;;;;;5039135;28;20282;-77
2024/02/02 07:38:05;;;;;;;8.70;4.15;;;8.50;99.90;;;;;;5078328;28;20172;-77
2024/02/02 07:40:30;;;;;;;11.38;3.83;;;8.50;99.90;;;;;;5067862;28;20221;-77
2024/02/02 07:42:57;;;;;;;10.83;4.70;;;8.50;99.90;;;;;;5070733;28;20561;-77
2024/02/02 07:45:23;;;;;;;8.55;4.38;;;8.50;99.90;;;;;;5084072;28;20198;-77
2024/02/02 07:47:49;;;;;;;12.50;4.77;;;8.60;99.90;;;;;;5057285;28;20172;-77
2024/02/02 07:50:14;;;;;;;8.23;4.57;;;8.60;99.90;;;;;;5072679;28;20225;-78
2024/02/02 07:52:40;;;;;;;10.13;4.37;;;8.70;99.90;;;;;;5088659;28;20179;-78
2024/02/02 07:55:06;;;;;;;9.93;4.17;;;8.70;99.90;;;;;;5059620;28;20675;-78
2024/02/02 07:57:32;;;;;;;10.90;4.23;;;8.80;99.90;;;;;;5038079;28;20204;-78
2024/02/02 07:59:57;;;;;;;8.70;3.40;;;8.80;99.90;;;;;;5085483;28;21200;-78
2024/02/02 08:02:24;;;;;;;8.53;5.20;;;8.90;99.90;;;;;;5073559;28;20625;-78
2024/02/02 08:04:50;;;;;;;9.02;3.60;;;8.90;99.90;;;;;;5065809;28;20603;-78
2024/02/02 08:07:16;;;;;;;12.00;4.97;;;8.90;99.90;;;;;;5074789;28;20236;-78
2024/02/02 08:09:41;;;;;;;9.70;4.40;;;9.00;99.90;;;;;;5084738;28;20609;-76
2024/02/02 08:12:07;;;;;;;10.40;3.90;;;9.00;99.90;;;;;;5043301;28;20589;-76
2024/02/02 08:14:33;;;;;;;5.53;3.67;;;9.00;99.90;;;;;;5088828;28;20211;-76
2024/02/02 08:16:59;;;;;;;10.50;4.37;;;9.10;99.90;;;;;;5074391;28;20644;-76
2024/02/02 08:19:25;;;;;;;8.80;4.43;;;9.10;99.90;;;;;;5057348;28;20289;-76
2024/02/02 08:21:54;;;;;;;6.45;3.88;;;9.20;99.90;;;;;;5049692;28;20593;-76
2024/02/02 08:24:20;;;;;;;10.38;3.47;;;9.20;99.90;;;;;;5074123;28;20224;-77
2024/02/02 08:26:46;;;;;;;10.43;4.60;;;9.30;99.90;;;;;;5073427;28;20172;-76
2024/02/02 08:29:12;;;;;;;10.27;3.67;;;9.40;99.90;;;;;;5091106;28;20216;-76
2024/02/02 08:31:37;;;;;;;9.30;4.40;;;9.50;99.90;;;;;;5072022;28;20642;-76
2024/02/02 08:34:03;;;;;;;10.37;3.50;;;9.50;99.90;;;;;;5057959;28;20176;-75
2024/02/02 08:36:29;;;;;;;13.10;5.27;;;9.60;99.90;;;;;;5096686;28;20194;-75
2024/02/02 08:38:55;;;;;;;9.57;2.88;;;9.70;99.90;;;;;;5083012;28;20614;-75
2024/02/02 08:41:21;;;;;;;9.57;3.77;;;9.90;99.90;;;;;;5104247;28;20164;-75
2024/02/02 08:43:49;;;;;;;11.47;4.83;;;10.00;99.90;;;;;;5105893;28;20168;-75
2024/02/02 08:46:19;;;;;;;14.68;4.57;;;10.10;99.90;;;;;;5120040;28;20171;-76
2024/02/02 08:48:49;;;;;;;8.77;3.22;;;10.20;99.90;;;;;;5108173;28;20199;-75
2024/02/02 08:51:21;;;;;;;8.55;3.60;;;10.40;99.90;;;;;;5087473;28;20211;-76
2024/02/02 08:54:09;;;;;;;6.60;2.55;;;10.50;99.90;;;;;;5066824;28;20176;-75
2024/02/02 08:56:34;;;;;;;6.43;3.50;;;10.60;99.90;;;;;;5064283;28;20203;-76
2024/02/02 08:59:06;;;;;;;9.27;3.40;;;10.80;99.90;;;;;;5079370;28;20207;-76
2024/02/02 09:01:44;;;;;;;5.05;2.40;;;10.90;99.90;;;;;;5085639;28;20211;-76
2024/02/02 09:04:58;;;;;;;7.18;2.38;;;11.00;99.90;;;;;;5047881;28;20218;-76
2024/02/02 09:07:24;;;;;;;7.30;2.42;;;11.10;99.90;;;;;;5056172;28;20637;-76
2024/02/02 09:09:51;;;;;;;12.23;2.90;;;11.30;99.90;;;;;;5056766;28;20267;-76
2024/02/02 09:12:18;;;;;;;10.07;2.65;;;11.30;99.90;;;;;;5074761;28;20949;-75
2024/02/02 09:14:44;;;;;;;5.65;2.20;;;11.40;99.90;;;;;;5075646;28;20183;-75
2024/02/02 09:17:12;;;;;;;5.57;2.08;;;11.50;99.90;;;;;;5098171;28;20234;-75
2024/02/02 09:19:43;;;;;;;7.68;1.90;;;11.60;99.90;;;;;;5100448;28;20210;-76
2024/02/02 09:22:12;;;;;;;4.15;1.40;;;11.70;99.90;;;;;;5079311;28;20245;-75
2024/02/02 09:24:42;;;;;;;5.07;1.50;;;11.80;99.90;;;;;;5074685;28;20171;-75
2024/02/02 09:27:13;;;;;;;7.38;2.05;;;12.00;99.90;;;;;;5071646;28;20311;-73
2024/02/02 09:29:49;;;;;;;5.95;1.40;;;12.10;99.90;;;;;;5055111;28;20204;-75
2024/02/02 09:32:16;;;;;;;8.63;2.13;;;12.30;99.90;;;;;;5060217;28;20214;-76
2024/02/02 09:34:43;;;;;;;8.77;2.50;;;12.40;99.90;;;;;;5058075;28;20168;-75
2024/02/02 09:37:24;;;;;;;8.03;2.07;;;12.50;99.90;;;;;;5084200;28;20622;-75
2024/02/02 09:39:55;;;;;;;5.07;1.30;;;12.60;99.90;;;;;;5063275;28;20616;-75
2024/02/02 09:42:47;;;;;;;6.27;1.43;;;12.80;99.90;;;;;;5093921;28;20569;-75
2024/02/02 09:45:40;;;;;;;9.53;1.40;;;12.90;99.90;;;;;;5098015;28;20554;-75
2024/02/02 09:48:35;;;;;;;5.67;1.43;;;13.10;99.90;;;;;;5052912;28;21019;-76
2024/02/02 09:51:24;;;;;;;4.57;1.53;;;13.20;99.90;;;;;;5061832;28;20699;-76
2024/02/02 09:54:15;;;;;;;8.13;1.77;;;13.30;99.90;;;;;;5076715;28;20632;-76
2024/02/02 09:56:59;;;;;;;4.27;1.17;;;13.40;99.90;;;;;;5090960;28;20645;-76
2024/02/02 09:59:50;;;;;;;6.33;1.50;;;13.50;99.90;;;;;;5075517;28;20659;-76
2024/02/02 10:02:30;;;;;;;6.80;1.40;;;13.50;99.90;;;;;;5074536;28;20601;-77
2024/02/02 10:05:36;;;;;;;8.43;1.80;;;13.40;99.90;;;;;;5065149;28;20578;-76
2024/02/02 10:08:27;;;;;;;5.43;1.50;;;13.40;99.90;;;;;;5051746;28;20600;-76
2024/02/02 10:11:23;;;;;;;8.23;2.30;;;13.40;99.90;;;;;;5096755;28;20650;-76
2024/02/02 10:14:11;;;;;;;7.83;1.70;;;13.40;99.90;;;;;;5059619;28;21174;-76
2024/02/02 10:16:51;;;;;;;5.67;1.70;;;13.40;99.90;;;;;;5084582;28;20733;-76
2024/02/02 10:19:35;;;;;;;8.30;2.37;;;13.50;99.90;;;;;;5071452;28;21237;-76
2024/02/02 10:22:27;;;;;;;7.23;2.43;;;13.50;99.90;;;;;;5052633;28;20939;-76
2024/02/02 10:25:34;;;;;;;4.83;1.30;;;13.50;99.90;;;;;;5056200;28;20578;-76
2024/02/02 10:28:24;;;;;;;6.80;1.60;;;13.60;99.90;;;;;;5091883;28;21142;-76
2024/02/02 10:31:03;;;;;;;8.73;2.10;;;13.60;99.90;;;;;;5090835;28;20635;-75
2024/02/02 10:34:15;;;;;;;9.10;1.70;;;13.60;99.90;;;;;;5091091;28;20619;-76
2024/02/02 10:36:58;;;;;;;4.80;1.50;;;13.70;99.90;;;;;;5076481;28;20720;-75
2024/02/02 10:40:07;;;;;;;5.43;1.27;;;13.70;99.90;;;;;;5072013;28;21184;-75
2024/02/02 10:42:32;;;;;;;7.30;2.33;;;13.70;99.90;;;;;;5121137;28;21149;-75
2024/02/02 10:45:12;;;;;;;7.43;2.37;;;13.80;99.90;;;;;;5114068;28;20640;-75
2024/02/02 10:48:06;;;;;;;3.77;1.40;;;13.80;99.90;;;;;;5082862;28;20172;-77
2024/02/02 10:50:51;;;;;;;6.77;1.70;;;13.80;99.90;;;;;;5027917;28;20582;-76
2024/02/02 10:53:34;;;;;;;7.83;1.47;;;13.80;99.90;;;;;;5082560;28;20608;-76
2024/02/02 10:56:22;;;;;;;7.43;2.03;;;13.80;99.90;;;;;;5096867;28;20969;-76
2024/02/02 10:59:25;;;;;;;7.70;1.63;;;13.80;99.90;;;;;;5095801;28;20732;-76
2024/02/02 11:02:00;;;;;;;5.93;1.93;;;13.70;99.90;;;;;;5068794;28;20586;-74
2024/02/02 11:05:06;;;;;;;6.97;1.93;;;13.80;99.90;;;;;;5079270;28;20566;-76
2024/02/02 11:07:58;;;;;;;6.77;1.90;;;13.70;99.90;;;;;;5077308;28;20584;-77
2024/02/02 11:10:31;;;;;;;5.17;1.60;;;13.80;99.90;;;;;;5076523;28;20629;-75
2024/02/02 11:13:05;;;;;;;7.53;1.73;;;13.70;99.90;;;;;;5094858;28;20809;-76
2024/02/02 11:16:06;;;;;;;3.50;1.10;;;13.70;99.90;;;;;;5088147;28;20593;-76
2024/02/02 11:18:45;;;;;;;13.50;4.37;;;13.70;99.90;;;;;;5099228;28;20663;-75
2024/02/02 11:21:44;;;;;;;10.23;4.23;;;13.60;99.90;;;;;;5095829;28;20577;-75
2024/02/02 11:24:35;;;;;;;7.33;3.83;;;13.60;99.90;;;;;;5077557;28;20916;-75
2024/02/02 11:27:14;;;;;;;8.23;2.60;;;13.60;99.90;;;;;;5077141;28;20566;-77
2024/02/02 11:29:45;;;;;;;4.33;2.10;;;13.60;99.90;;;;;;5074328;28;20597;-76
2024/02/02 11:33:05;;;;;;;9.57;2.47;;;13.60;99.90;;;;;;5092346;28;20575;-76
2024/02/02 11:35:39;;;;;;;7.13;2.13;;;13.60;99.90;;;;;;5042348;28;20614;-76
2024/02/02 11:38:31;;;;;;;4.77;1.53;;;13.60;99.90;;;;;;5064223;28;20596;-76
2024/02/02 11:40:58;;;;;;;10.43;2.20;;;13.60;99.90;;;;;;5075235;28;20647;-76
2024/02/02 11:43:24;;;;;;;5.17;1.67;;;13.60;99.90;;;;;;5076005;28;21214;-75
2024/02/02 11:45:53;;;;;;;8.90;2.00;;;13.60;99.90;;;;;;5095327;28;20616;-76
2024/02/02 11:48:22;;;;;;;3.70;1.90;;;13.60;99.90;;;;;;5095425;28;20578;-76
2024/02/02 11:50:49;;;;;;;5.67;2.73;;;13.60;99.90;;;;;;5090825;28;20596;-76
2024/02/02 11:53:26;;;;;;;10.47;2.40;;;13.60;99.90;;;;;;5087850;28;20591;-75
2024/02/02 11:55:59;;;;;;;8.95;2.40;;;13.60;99.90;;;;;;5066193;28;20621;-75
2024/02/02 11:58:26;;;;;;;5.50;2.00;;;13.60;99.90;;;;;;5076698;28;20261;-75
2024/02/02 12:00:54;;;;;;;5.53;1.80;;;13.60;99.90;;;;;;5076801;28;20589;-75
2024/02/02 12:03:40;;;;;;;6.93;2.30;;;13.70;99.90;;;;;;5110595;28;20632;-75
2024/02/02 12:06:16;;;;;;;8.63;2.20;;;13.70;99.90;;;;;;5109100;28;20585;-75
2024/02/02 12:09:17;;;;;;;12.40;2.27;;;13.70;99.90;;;;;;5092183;28;20644;-75
2024/02/02 12:11:48;;;;;;;8.07;2.67;;;13.80;99.90;;;;;;5054947;28;20585;-75
2024/02/02 12:14:40;;;;;;;7.57;1.80;;;13.80;99.90;;;;;;5058420;28;20605;-76
2024/02/02 12:17:10;;;;;;;11.23;4.80;;;13.90;99.90;;;;;;5069183;28;20633;-76
2024/02/02 12:19:36;;;;;;;11.53;5.87;;;13.90;99.90;;;;;;5077568;28;20617;-73
2024/02/02 12:22:02;;;;;;;14.77;8.03;;;14.00;99.90;;;;;;5090688;28;21177;-73
2024/02/02 12:24:28;;;;;;;13.70;5.13;;;14.10;99.90;;;;;;5091596;28;20590;-73
2024/02/02 12:26:54;;;;;;;9.83;3.20;;;14.10;99.90;;;;;;5062334;28;20582;-75
2024/02/02 12:29:21;;;;;;;8.17;2.33;;;14.20;99.90;;;;;;5097432;28;20636;-75
2024/02/02 12:31:47;;;;;;;8.43;2.60;;;14.20;99.90;;;;;;5094312;28;20175;-75
2024/02/02 12:34:13;;;;;;;7.70;1.90;;;14.20;99.90;;;;;;5084368;28;20640;-75
2024/02/02 12:36:39;;;;;;;9.67;2.17;;;14.20;99.90;;;;;;5091599;28;20644;-75
2024/02/02 12:39:08;;;;;;;10.27;2.73;;;14.20;99.90;;;;;;5075041;28;20225;-75
2024/02/02 12:41:35;;;;;;;8.43;2.73;;;14.20;99.90;;;;;;5075783;28;21077;-75
2024/02/02 12:44:01;;;;;;;11.00;3.10;;;14.20;99.90;;;;;;5090044;28;20582;-75
2024/02/02 12:46:27;;;;;;;5.30;1.97;;;14.10;99.90;;;;;;5073295;28;20586;-76
2024/02/02 12:48:54;;;;;;;7.30;2.07;;;14.10;99.90;;;;;;5085132;28;20838;-76
2024/02/02 12:51:20;;;;;;;7.30;2.50;;;14.10;99.90;;;;;;5090346;28;20586;-75
2024/02/02 12:53:46;;;;;;;8.00;2.17;;;14.10;99.90;;;;;;5088778;28;21150;-75
2024/02/02 12:56:13;;;;;;;6.73;1.80;;;14.10;99.90;;;;;;5065945;28;20234;-75
2024/02/02 12:58:40;;;;;;;5.63;1.77;;;14.10;99.90;;;;;;5089748;28;20211;-74
2024/02/02 13:01:06;;;;;;;6.23;1.73;;;14.00;99.90;;;;;;5090034;28;20635;-75
2024/02/02 13:03:32;;;;;;;6.13;2.30;;;14.00;99.90;;;;;;5081169;28;20691;-75
2024/02/02 13:05:59;;;;;;;5.20;2.10;;;14.00;99.90;;;;;;5063734;28;20679;-75